sensor_id;sensor_type;location;lat;lon;timestamp;P1;durP1;ratioP1;P2;durP2;ratioP2
73729;SDS011;62036;48.128;16.458;2022-08-19T00:02:21;4.28;;;1.77;;
73729;SDS011;62036;48.128;16.458;2022-08-19T00:04:47;6.47;;;2.08;;
73729;SDS011;62036;48.128;16.458;2022-08-19T00:07:17;4.65;;;2.00;;
73729;SDS011;62036;48.128;16.458;2022-08-19T00:09:43;8.25;;;2.25;;
73729;SDS011;62036;48.128;16.458;2022-08-19T00:12:10;4.72;;;1.90;;
73729;SDS011;62036;48.128;16.458;2022-08-19T00:14:36;10.15;;;2.05;;
73729;SDS011;62036;48.128;16.458;2022-08-19T00:17:03;7.53;;;2.00;;
73729;SDS011;62036;48.128;16.458;2022-08-19T00:19:29;4.05;;;2.20;;
73729;SDS011;62036;48.128;16.458;2022-08-19T00:21:55;6.03;;;1.83;;
73729;SDS011;62036;48.128;16.458;2022-08-19T00:24:21;5.45;;;1.90;;
73729;SDS011;62036;48.128;16.458;2022-08-19T00:26:48;5.30;;;1.92;;
73729;SDS011;62036;48.128;16.458;2022-08-19T00:29:15;7.90;;;2.00;;
73729;SDS011;62036;48.128;16.458;2022-08-19T00:31:42;5.53;;;1.63;;
73729;SDS011;62036;48.128;16.458;2022-08-19T00:34:09;8.32;;;2.25;;
73729;SDS011;62036;48.128;16.458;2022-08-19T00:36:35;5.35;;;1.95;;
73729;SDS011;62036;48.128;16.458;2022-08-19T00:39:02;4.78;;;1.80;;
73729;SDS011;62036;48.128;16.458;2022-08-19T00:41:29;4.13;;;1.80;;
73729;SDS011;62036;48.128;16.458;2022-08-19T00:46:24;6.85;;;1.75;;
73729;SDS011;62036;48.128;16.458;2022-08-19T00:48:50;7.28;;;2.47;;
73729;SDS011;62036;48.128;16.458;2022-08-19T00:51:16;4.65;;;1.88;;
73729;SDS011;62036;48.128;16.458;2022-08-19T00:53:42;5.68;;;1.90;;
73729;SDS011;62036;48.128;16.458;2022-08-19T00:56:08;7.85;;;2.10;;
73729;SDS011;62036;48.128;16.458;2022-08-19T00:58:35;6.63;;;2.15;;
73729;SDS011;62036;48.128;16.458;2022-08-19T01:01:03;7.22;;;2.17;;
73729;SDS011;62036;48.128;16.458;2022-08-19T01:03:29;7.80;;;2.05;;
73729;SDS011;62036;48.128;16.458;2022-08-19T01:05:55;5.10;;;2.00;;
73729;SDS011;62036;48.128;16.458;2022-08-19T01:08:22;6.50;;;2.63;;
73729;SDS011;62036;48.128;16.458;2022-08-19T01:10:50;6.03;;;2.17;;
73729;SDS011;62036;48.128;16.458;2022-08-19T01:13:21;4.72;;;2.25;;
73729;SDS011;62036;48.128;16.458;2022-08-19T01:15:55;6.63;;;2.10;;
73729;SDS011;62036;48.128;16.458;2022-08-19T01:18:21;7.95;;;2.10;;
73729;SDS011;62036;48.128;16.458;2022-08-19T01:20:49;9.80;;;2.50;;
73729;SDS011;62036;48.128;16.458;2022-08-19T01:23:16;6.85;;;2.38;;
73729;SDS011;62036;48.128;16.458;2022-08-19T01:25:44;7.47;;;1.90;;
73729;SDS011;62036;48.128;16.458;2022-08-19T01:28:24;4.65;;;2.05;;
73729;SDS011;62036;48.128;16.458;2022-08-19T01:30:51;6.50;;;2.03;;
73729;SDS011;62036;48.128;16.458;2022-08-19T01:33:17;11.85;;;2.80;;
73729;SDS011;62036;48.128;16.458;2022-08-19T01:35:44;8.45;;;2.28;;
73729;SDS011;62036;48.128;16.458;2022-08-19T01:38:18;5.57;;;2.30;;
73729;SDS011;62036;48.128;16.458;2022-08-19T01:40:45;7.15;;;2.53;;
73729;SDS011;62036;48.128;16.458;2022-08-19T01:43:11;9.23;;;2.90;;
73729;SDS011;62036;48.128;16.458;2022-08-19T01:45:37;6.70;;;2.60;;
73729;SDS011;62036;48.128;16.458;2022-08-19T01:48:05;9.50;;;2.38;;
73729;SDS011;62036;48.128;16.458;2022-08-19T01:50:32;5.07;;;2.47;;
73729;SDS011;62036;48.128;16.458;2022-08-19T01:53:00;5.18;;;2.63;;
73729;SDS011;62036;48.128;16.458;2022-08-19T01:55:26;8.20;;;3.00;;
73729;SDS011;62036;48.128;16.458;2022-08-19T01:57:54;9.10;;;2.90;;
73729;SDS011;62036;48.128;16.458;2022-08-19T02:00:22;7.97;;;3.08;;
73729;SDS011;62036;48.128;16.458;2022-08-19T02:02:49;8.60;;;2.58;;
73729;SDS011;62036;48.128;16.458;2022-08-19T02:05:15;7.20;;;3.10;;
73729;SDS011;62036;48.128;16.458;2022-08-19T02:07:42;6.85;;;2.75;;
73729;SDS011;62036;48.128;16.458;2022-08-19T02:10:14;4.97;;;2.38;;
73729;SDS011;62036;48.128;16.458;2022-08-19T02:12:43;6.32;;;2.70;;
73729;SDS011;62036;48.128;16.458;2022-08-19T02:15:09;5.50;;;3.10;;
73729;SDS011;62036;48.128;16.458;2022-08-19T02:17:35;6.03;;;3.38;;
73729;SDS011;62036;48.128;16.458;2022-08-19T02:20:01;5.85;;;2.83;;
73729;SDS011;62036;48.128;16.458;2022-08-19T02:22:27;6.40;;;2.78;;
73729;SDS011;62036;48.128;16.458;2022-08-19T02:24:53;6.57;;;3.03;;
73729;SDS011;62036;48.128;16.458;2022-08-19T02:27:19;7.60;;;2.78;;
73729;SDS011;62036;48.128;16.458;2022-08-19T02:29:46;9.88;;;3.33;;
73729;SDS011;62036;48.128;16.458;2022-08-19T02:32:12;7.47;;;2.95;;
73729;SDS011;62036;48.128;16.458;2022-08-19T02:34:39;7.88;;;2.90;;
73729;SDS011;62036;48.128;16.458;2022-08-19T02:37:05;10.02;;;4.55;;
73729;SDS011;62036;48.128;16.458;2022-08-19T02:39:31;6.65;;;2.97;;
73729;SDS011;62036;48.128;16.458;2022-08-19T02:41:57;10.48;;;3.45;;
73729;SDS011;62036;48.128;16.458;2022-08-19T02:44:24;8.27;;;3.13;;
73729;SDS011;62036;48.128;16.458;2022-08-19T02:46:50;8.98;;;3.47;;
73729;SDS011;62036;48.128;16.458;2022-08-19T02:49:16;5.80;;;3.10;;
73729;SDS011;62036;48.128;16.458;2022-08-19T02:51:43;8.70;;;3.20;;
73729;SDS011;62036;48.128;16.458;2022-08-19T02:54:10;6.20;;;2.83;;
73729;SDS011;62036;48.128;16.458;2022-08-19T02:56:37;7.28;;;2.95;;
73729;SDS011;62036;48.128;16.458;2022-08-19T02:59:04;7.75;;;2.92;;
73729;SDS011;62036;48.128;16.458;2022-08-19T03:01:34;7.80;;;3.75;;
73729;SDS011;62036;48.128;16.458;2022-08-19T03:04:03;6.65;;;2.83;;
73729;SDS011;62036;48.128;16.458;2022-08-19T03:06:30;6.07;;;3.60;;
73729;SDS011;62036;48.128;16.458;2022-08-19T03:08:57;5.10;;;2.65;;
73729;SDS011;62036;48.128;16.458;2022-08-19T03:11:27;5.20;;;2.78;;
73729;SDS011;62036;48.128;16.458;2022-08-19T03:13:54;5.80;;;2.72;;
73729;SDS011;62036;48.128;16.458;2022-08-19T03:16:21;8.57;;;3.00;;
73729;SDS011;62036;48.128;16.458;2022-08-19T03:18:48;6.05;;;2.75;;
73729;SDS011;62036;48.128;16.458;2022-08-19T03:21:18;6.28;;;3.13;;
73729;SDS011;62036;48.128;16.458;2022-08-19T03:23:44;7.00;;;2.95;;
73729;SDS011;62036;48.128;16.458;2022-08-19T03:26:11;10.35;;;2.92;;
73729;SDS011;62036;48.128;16.458;2022-08-19T03:28:37;5.70;;;2.80;;
73729;SDS011;62036;48.128;16.458;2022-08-19T03:31:07;6.68;;;2.55;;
73729;SDS011;62036;48.128;16.458;2022-08-19T03:33:34;9.27;;;2.80;;
73729;SDS011;62036;48.128;16.458;2022-08-19T03:36:02;5.65;;;2.80;;
73729;SDS011;62036;48.128;16.458;2022-08-19T03:38:28;9.88;;;2.88;;
73729;SDS011;62036;48.128;16.458;2022-08-19T03:40:54;5.05;;;2.80;;
73729;SDS011;62036;48.128;16.458;2022-08-19T03:43:20;6.85;;;2.70;;
73729;SDS011;62036;48.128;16.458;2022-08-19T03:45:46;6.13;;;2.85;;
73729;SDS011;62036;48.128;16.458;2022-08-19T03:48:14;4.40;;;2.30;;
73729;SDS011;62036;48.128;16.458;2022-08-19T03:50:42;6.70;;;2.88;;
73729;SDS011;62036;48.128;16.458;2022-08-19T03:53:08;9.48;;;3.45;;
73729;SDS011;62036;48.128;16.458;2022-08-19T03:55:39;9.20;;;3.42;;
73729;SDS011;62036;48.128;16.458;2022-08-19T03:58:05;7.68;;;4.53;;
73729;SDS011;62036;48.128;16.458;2022-08-19T04:00:31;10.30;;;4.30;;
73729;SDS011;62036;48.128;16.458;2022-08-19T04:02:58;7.32;;;3.58;;
73729;SDS011;62036;48.128;16.458;2022-08-19T04:05:26;11.65;;;4.18;;
73729;SDS011;62036;48.128;16.458;2022-08-19T04:07:53;5.30;;;3.08;;
73729;SDS011;62036;48.128;16.458;2022-08-19T04:10:21;7.10;;;3.67;;
73729;SDS011;62036;48.128;16.458;2022-08-19T04:12:48;8.02;;;3.42;;
73729;SDS011;62036;48.128;16.458;2022-08-19T04:15:14;6.75;;;3.08;;
73729;SDS011;62036;48.128;16.458;2022-08-19T04:17:40;5.47;;;3.30;;
73729;SDS011;62036;48.128;16.458;2022-08-19T04:20:06;8.25;;;3.17;;
73729;SDS011;62036;48.128;16.458;2022-08-19T04:22:33;5.25;;;3.05;;
73729;SDS011;62036;48.128;16.458;2022-08-19T04:24:59;9.52;;;3.60;;
73729;SDS011;62036;48.128;16.458;2022-08-19T04:27:25;8.93;;;3.17;;
73729;SDS011;62036;48.128;16.458;2022-08-19T04:29:51;6.07;;;3.08;;
73729;SDS011;62036;48.128;16.458;2022-08-19T04:32:19;6.45;;;3.13;;
73729;SDS011;62036;48.128;16.458;2022-08-19T04:34:46;7.50;;;3.10;;
73729;SDS011;62036;48.128;16.458;2022-08-19T04:37:12;6.82;;;3.30;;
73729;SDS011;62036;48.128;16.458;2022-08-19T04:39:39;7.28;;;3.60;;
73729;SDS011;62036;48.128;16.458;2022-08-19T04:42:24;5.22;;;3.25;;
73729;SDS011;62036;48.128;16.458;2022-08-19T04:45:13;10.32;;;2.75;;
73729;SDS011;62036;48.128;16.458;2022-08-19T04:47:39;5.88;;;3.55;;
73729;SDS011;62036;48.128;16.458;2022-08-19T04:50:07;7.50;;;3.55;;
73729;SDS011;62036;48.128;16.458;2022-08-19T04:52:36;5.43;;;3.05;;
73729;SDS011;62036;48.128;16.458;2022-08-19T04:55:02;7.65;;;3.40;;
73729;SDS011;62036;48.128;16.458;2022-08-19T04:57:30;9.55;;;3.42;;
73729;SDS011;62036;48.128;16.458;2022-08-19T04:59:56;10.15;;;4.50;;
73729;SDS011;62036;48.128;16.458;2022-08-19T05:02:23;10.50;;;3.90;;
73729;SDS011;62036;48.128;16.458;2022-08-19T05:04:49;8.95;;;3.08;;
73729;SDS011;62036;48.128;16.458;2022-08-19T05:07:15;11.25;;;3.88;;
73729;SDS011;62036;48.128;16.458;2022-08-19T05:09:41;15.40;;;4.25;;
73729;SDS011;62036;48.128;16.458;2022-08-19T05:12:07;7.97;;;3.13;;
73729;SDS011;62036;48.128;16.458;2022-08-19T05:14:33;9.77;;;3.80;;
73729;SDS011;62036;48.128;16.458;2022-08-19T05:17:01;16.63;;;3.83;;
73729;SDS011;62036;48.128;16.458;2022-08-19T05:19:27;6.03;;;3.08;;
73729;SDS011;62036;48.128;16.458;2022-08-19T05:22:12;11.07;;;3.40;;
73729;SDS011;62036;48.128;16.458;2022-08-19T05:24:57;6.43;;;3.22;;
73729;SDS011;62036;48.128;16.458;2022-08-19T05:27:23;6.85;;;3.47;;
73729;SDS011;62036;48.128;16.458;2022-08-19T05:29:49;10.63;;;4.40;;
73729;SDS011;62036;48.128;16.458;2022-08-19T05:32:15;14.98;;;8.15;;
73729;SDS011;62036;48.128;16.458;2022-08-19T05:34:41;13.70;;;5.85;;
73729;SDS011;62036;48.128;16.458;2022-08-19T05:37:07;8.70;;;4.28;;
73729;SDS011;62036;48.128;16.458;2022-08-19T05:39:34;8.05;;;3.40;;
73729;SDS011;62036;48.128;16.458;2022-08-19T05:42:02;7.22;;;3.60;;
73729;SDS011;62036;48.128;16.458;2022-08-19T05:44:29;10.55;;;2.95;;
73729;SDS011;62036;48.128;16.458;2022-08-19T05:46:56;11.35;;;3.70;;
73729;SDS011;62036;48.128;16.458;2022-08-19T05:49:26;6.75;;;2.28;;
73729;SDS011;62036;48.128;16.458;2022-08-19T05:51:52;6.05;;;4.03;;
73729;SDS011;62036;48.128;16.458;2022-08-19T05:54:20;13.10;;;7.63;;
73729;SDS011;62036;48.128;16.458;2022-08-19T05:56:48;10.40;;;7.25;;
73729;SDS011;62036;48.128;16.458;2022-08-19T05:59:14;7.28;;;4.85;;
73729;SDS011;62036;48.128;16.458;2022-08-19T06:01:42;9.93;;;7.00;;
73729;SDS011;62036;48.128;16.458;2022-08-19T06:04:08;8.80;;;6.22;;
73729;SDS011;62036;48.128;16.458;2022-08-19T06:06:34;8.75;;;6.47;;
73729;SDS011;62036;48.128;16.458;2022-08-19T06:09:02;12.63;;;6.30;;
73729;SDS011;62036;48.128;16.458;2022-08-19T06:11:33;9.23;;;5.80;;
73729;SDS011;62036;48.128;16.458;2022-08-19T06:16:25;6.63;;;5.85;;
73729;SDS011;62036;48.128;16.458;2022-08-19T06:18:52;7.65;;;5.63;;
73729;SDS011;62036;48.128;16.458;2022-08-19T06:21:22;8.02;;;5.75;;
73729;SDS011;62036;48.128;16.458;2022-08-19T06:23:48;6.97;;;5.97;;
73729;SDS011;62036;48.128;16.458;2022-08-19T06:26:16;8.60;;;5.80;;
73729;SDS011;62036;48.128;16.458;2022-08-19T06:28:43;9.88;;;5.95;;
73729;SDS011;62036;48.128;16.458;2022-08-19T06:31:11;9.18;;;5.90;;
73729;SDS011;62036;48.128;16.458;2022-08-19T06:33:38;7.47;;;5.93;;
73729;SDS011;62036;48.128;16.458;2022-08-19T06:36:04;10.13;;;5.50;;
73729;SDS011;62036;48.128;16.458;2022-08-19T06:38:31;10.25;;;6.85;;
73729;SDS011;62036;48.128;16.458;2022-08-19T06:41:02;10.90;;;6.00;;
73729;SDS011;62036;48.128;16.458;2022-08-19T06:43:28;8.88;;;5.50;;
73729;SDS011;62036;48.128;16.458;2022-08-19T06:45:54;12.65;;;6.28;;
73729;SDS011;62036;48.128;16.458;2022-08-19T06:48:21;8.73;;;5.68;;
73729;SDS011;62036;48.128;16.458;2022-08-19T06:50:47;8.30;;;4.93;;
73729;SDS011;62036;48.128;16.458;2022-08-19T06:53:14;9.65;;;5.60;;
73729;SDS011;62036;48.128;16.458;2022-08-19T06:55:42;7.18;;;5.00;;
73729;SDS011;62036;48.128;16.458;2022-08-19T06:58:08;7.05;;;5.75;;
73729;SDS011;62036;48.128;16.458;2022-08-19T07:00:35;7.78;;;6.03;;
73729;SDS011;62036;48.128;16.458;2022-08-19T07:03:01;8.02;;;6.03;;
73729;SDS011;62036;48.128;16.458;2022-08-19T07:05:28;7.93;;;5.35;;
73729;SDS011;62036;48.128;16.458;2022-08-19T07:07:54;6.32;;;4.80;;
73729;SDS011;62036;48.128;16.458;2022-08-19T07:10:21;6.53;;;5.13;;
73729;SDS011;62036;48.128;16.458;2022-08-19T07:12:47;6.18;;;5.18;;
73729;SDS011;62036;48.128;16.458;2022-08-19T07:15:15;6.72;;;4.95;;
73729;SDS011;62036;48.128;16.458;2022-08-19T07:17:41;7.78;;;4.88;;
73729;SDS011;62036;48.128;16.458;2022-08-19T07:20:08;5.65;;;4.95;;
73729;SDS011;62036;48.128;16.458;2022-08-19T07:22:35;8.32;;;5.10;;
73729;SDS011;62036;48.128;16.458;2022-08-19T07:25:03;7.95;;;5.65;;
73729;SDS011;62036;48.128;16.458;2022-08-19T07:27:29;7.10;;;4.80;;
73729;SDS011;62036;48.128;16.458;2022-08-19T07:29:56;6.28;;;5.15;;
73729;SDS011;62036;48.128;16.458;2022-08-19T07:32:31;7.75;;;5.05;;
73729;SDS011;62036;48.128;16.458;2022-08-19T07:34:57;9.15;;;5.43;;
73729;SDS011;62036;48.128;16.458;2022-08-19T07:37:25;8.15;;;5.30;;
73729;SDS011;62036;48.128;16.458;2022-08-19T07:39:53;7.22;;;5.03;;
73729;SDS011;62036;48.128;16.458;2022-08-19T07:42:19;8.48;;;5.20;;
73729;SDS011;62036;48.128;16.458;2022-08-19T07:44:46;6.30;;;5.22;;
73729;SDS011;62036;48.128;16.458;2022-08-19T07:47:12;7.25;;;5.13;;
73729;SDS011;62036;48.128;16.458;2022-08-19T07:49:40;6.05;;;4.55;;
73729;SDS011;62036;48.128;16.458;2022-08-19T07:52:08;6.95;;;4.75;;
73729;SDS011;62036;48.128;16.458;2022-08-19T07:54:36;7.35;;;4.80;;
73729;SDS011;62036;48.128;16.458;2022-08-19T07:57:03;6.53;;;4.85;;
73729;SDS011;62036;48.128;16.458;2022-08-19T07:59:29;6.13;;;4.30;;
73729;SDS011;62036;48.128;16.458;2022-08-19T08:01:57;8.02;;;5.00;;
73729;SDS011;62036;48.128;16.458;2022-08-19T08:04:25;8.75;;;4.75;;
73729;SDS011;62036;48.128;16.458;2022-08-19T08:07:10;6.68;;;4.70;;
73729;SDS011;62036;48.128;16.458;2022-08-19T08:09:55;6.95;;;4.20;;
73729;SDS011;62036;48.128;16.458;2022-08-19T08:12:27;9.38;;;5.18;;
73729;SDS011;62036;48.128;16.458;2022-08-19T08:14:57;7.00;;;4.85;;
73729;SDS011;62036;48.128;16.458;2022-08-19T08:17:26;6.95;;;5.00;;
73729;SDS011;62036;48.128;16.458;2022-08-19T08:19:52;8.40;;;5.38;;
73729;SDS011;62036;48.128;16.458;2022-08-19T08:22:19;9.88;;;5.10;;
73729;SDS011;62036;48.128;16.458;2022-08-19T08:25:06;5.65;;;4.72;;
73729;SDS011;62036;48.128;16.458;2022-08-19T08:27:35;7.82;;;4.75;;
73729;SDS011;62036;48.128;16.458;2022-08-19T08:30:02;8.48;;;4.63;;
73729;SDS011;62036;48.128;16.458;2022-08-19T08:32:29;7.97;;;4.72;;
73729;SDS011;62036;48.128;16.458;2022-08-19T08:34:55;6.10;;;4.63;;
73729;SDS011;62036;48.128;16.458;2022-08-19T08:37:21;6.28;;;4.47;;
73729;SDS011;62036;48.128;16.458;2022-08-19T08:39:47;8.50;;;5.00;;
73729;SDS011;62036;48.128;16.458;2022-08-19T08:42:16;8.60;;;4.75;;
73729;SDS011;62036;48.128;16.458;2022-08-19T08:47:17;7.00;;;4.55;;
73729;SDS011;62036;48.128;16.458;2022-08-19T08:50:07;8.13;;;5.25;;
73729;SDS011;62036;48.128;16.458;2022-08-19T08:52:37;9.70;;;4.53;;
73729;SDS011;62036;48.128;16.458;2022-08-19T08:55:08;7.90;;;4.78;;
73729;SDS011;62036;48.128;16.458;2022-08-19T08:57:44;6.28;;;4.50;;
73729;SDS011;62036;48.128;16.458;2022-08-19T09:00:24;7.10;;;4.53;;
73729;SDS011;62036;48.128;16.458;2022-08-19T09:02:52;7.57;;;4.50;;
73729;SDS011;62036;48.128;16.458;2022-08-19T09:05:19;7.15;;;4.70;;
73729;SDS011;62036;48.128;16.458;2022-08-19T09:10:37;6.57;;;4.97;;
73729;SDS011;62036;48.128;16.458;2022-08-19T09:15:32;8.35;;;4.00;;
73729;SDS011;62036;48.128;16.458;2022-08-19T09:18:03;9.05;;;4.60;;
73729;SDS011;62036;48.128;16.458;2022-08-19T09:20:29;7.57;;;4.47;;
73729;SDS011;62036;48.128;16.458;2022-08-19T09:22:56;4.88;;;4.25;;
73729;SDS011;62036;48.128;16.458;2022-08-19T09:25:24;7.43;;;4.00;;
73729;SDS011;62036;48.128;16.458;2022-08-19T09:27:51;8.40;;;4.47;;
73729;SDS011;62036;48.128;16.458;2022-08-19T09:30:20;9.82;;;4.35;;
73729;SDS011;62036;48.128;16.458;2022-08-19T09:32:47;6.30;;;4.32;;
73729;SDS011;62036;48.128;16.458;2022-08-19T09:35:13;7.07;;;4.22;;
73729;SDS011;62036;48.128;16.458;2022-08-19T09:37:40;7.65;;;4.45;;
73729;SDS011;62036;48.128;16.458;2022-08-19T09:40:06;6.57;;;4.40;;
73729;SDS011;62036;48.128;16.458;2022-08-19T09:42:33;7.22;;;4.40;;
73729;SDS011;62036;48.128;16.458;2022-08-19T09:44:59;6.53;;;3.83;;
73729;SDS011;62036;48.128;16.458;2022-08-19T09:47:25;6.03;;;4.03;;
73729;SDS011;62036;48.128;16.458;2022-08-19T09:49:51;5.25;;;4.32;;
73729;SDS011;62036;48.128;16.458;2022-08-19T09:52:17;7.63;;;4.25;;
73729;SDS011;62036;48.128;16.458;2022-08-19T09:54:43;9.32;;;4.60;;
73729;SDS011;62036;48.128;16.458;2022-08-19T09:57:09;9.95;;;4.68;;
73729;SDS011;62036;48.128;16.458;2022-08-19T09:59:35;8.10;;;4.40;;
73729;SDS011;62036;48.128;16.458;2022-08-19T10:02:01;10.82;;;5.40;;
73729;SDS011;62036;48.128;16.458;2022-08-19T10:04:27;6.40;;;4.28;;
73729;SDS011;62036;48.128;16.458;2022-08-19T10:07:13;7.28;;;4.47;;
73729;SDS011;62036;48.128;16.458;2022-08-19T10:09:40;11.13;;;7.32;;
73729;SDS011;62036;48.128;16.458;2022-08-19T10:12:06;9.95;;;5.30;;
73729;SDS011;62036;48.128;16.458;2022-08-19T10:14:33;9.43;;;5.80;;
73729;SDS011;62036;48.128;16.458;2022-08-19T10:16:59;6.57;;;4.68;;
73729;SDS011;62036;48.128;16.458;2022-08-19T10:19:26;5.72;;;4.32;;
73729;SDS011;62036;48.128;16.458;2022-08-19T10:21:57;9.93;;;5.30;;
73729;SDS011;62036;48.128;16.458;2022-08-19T10:24:23;11.05;;;4.88;;
73729;SDS011;62036;48.128;16.458;2022-08-19T10:26:50;7.03;;;4.38;;
73729;SDS011;62036;48.128;16.458;2022-08-19T10:29:16;7.32;;;4.65;;
73729;SDS011;62036;48.128;16.458;2022-08-19T10:31:42;7.63;;;4.28;;
73729;SDS011;62036;48.128;16.458;2022-08-19T10:34:12;7.15;;;4.30;;
73729;SDS011;62036;48.128;16.458;2022-08-19T10:36:38;8.35;;;5.00;;
73729;SDS011;62036;48.128;16.458;2022-08-19T10:39:08;41.75;;;29.80;;
73729;SDS011;62036;48.128;16.458;2022-08-19T10:41:36;41.22;;;26.95;;
73729;SDS011;62036;48.128;16.458;2022-08-19T10:44:04;8.38;;;3.80;;
73729;SDS011;62036;48.128;16.458;2022-08-19T10:46:30;11.95;;;3.75;;
73729;SDS011;62036;48.128;16.458;2022-08-19T10:48:58;6.47;;;3.40;;
73729;SDS011;62036;48.128;16.458;2022-08-19T10:51:24;10.43;;;4.05;;
73729;SDS011;62036;48.128;16.458;2022-08-19T10:54:09;6.97;;;3.55;;
73729;SDS011;62036;48.128;16.458;2022-08-19T10:56:35;6.70;;;3.70;;
73729;SDS011;62036;48.128;16.458;2022-08-19T10:59:35;10.82;;;3.85;;
73729;SDS011;62036;48.128;16.458;2022-08-19T11:02:02;9.23;;;3.65;;
73729;SDS011;62036;48.128;16.458;2022-08-19T11:04:29;16.98;;;5.60;;
73729;SDS011;62036;48.128;16.458;2022-08-19T11:06:56;12.68;;;4.53;;
73729;SDS011;62036;48.128;16.458;2022-08-19T11:09:23;14.70;;;3.90;;
73729;SDS011;62036;48.128;16.458;2022-08-19T11:11:50;10.68;;;3.88;;
73729;SDS011;62036;48.128;16.458;2022-08-19T11:14:17;8.70;;;3.20;;
73729;SDS011;62036;48.128;16.458;2022-08-19T11:16:45;10.05;;;3.47;;
73729;SDS011;62036;48.128;16.458;2022-08-19T11:19:12;13.85;;;3.63;;
73729;SDS011;62036;48.128;16.458;2022-08-19T11:21:41;13.40;;;4.47;;
73729;SDS011;62036;48.128;16.458;2022-08-19T11:24:11;15.63;;;4.38;;
73729;SDS011;62036;48.128;16.458;2022-08-19T11:26:38;8.07;;;4.55;;
73729;SDS011;62036;48.128;16.458;2022-08-19T11:29:05;14.23;;;4.30;;
73729;SDS011;62036;48.128;16.458;2022-08-19T11:31:36;10.55;;;3.22;;
73729;SDS011;62036;48.128;16.458;2022-08-19T11:34:04;14.32;;;3.92;;
73729;SDS011;62036;48.128;16.458;2022-08-19T11:36:31;10.80;;;3.33;;
73729;SDS011;62036;48.128;16.458;2022-08-19T11:38:57;11.05;;;3.60;;
73729;SDS011;62036;48.128;16.458;2022-08-19T11:41:24;9.20;;;3.42;;
73729;SDS011;62036;48.128;16.458;2022-08-19T11:43:50;9.30;;;3.15;;
73729;SDS011;62036;48.128;16.458;2022-08-19T11:46:19;8.90;;;3.60;;
73729;SDS011;62036;48.128;16.458;2022-08-19T11:48:45;9.80;;;3.53;;
73729;SDS011;62036;48.128;16.458;2022-08-19T11:51:12;8.32;;;3.70;;
73729;SDS011;62036;48.128;16.458;2022-08-19T11:53:38;9.10;;;3.60;;
73729;SDS011;62036;48.128;16.458;2022-08-19T11:56:05;7.80;;;3.60;;
73729;SDS011;62036;48.128;16.458;2022-08-19T11:58:31;9.60;;;3.83;;
73729;SDS011;62036;48.128;16.458;2022-08-19T12:00:57;10.93;;;3.55;;
73729;SDS011;62036;48.128;16.458;2022-08-19T12:03:23;10.40;;;3.70;;
73729;SDS011;62036;48.128;16.458;2022-08-19T12:05:50;7.68;;;3.42;;
73729;SDS011;62036;48.128;16.458;2022-08-19T12:08:16;7.63;;;3.97;;
73729;SDS011;62036;48.128;16.458;2022-08-19T12:10:42;8.23;;;3.80;;
73729;SDS011;62036;48.128;16.458;2022-08-19T12:13:09;6.40;;;3.78;;
73729;SDS011;62036;48.128;16.458;2022-08-19T12:15:36;8.63;;;3.95;;
73729;SDS011;62036;48.128;16.458;2022-08-19T12:18:02;5.68;;;3.33;;
73729;SDS011;62036;48.128;16.458;2022-08-19T12:20:28;11.77;;;3.85;;
73729;SDS011;62036;48.128;16.458;2022-08-19T12:22:54;7.40;;;4.15;;
73729;SDS011;62036;48.128;16.458;2022-08-19T12:25:20;7.95;;;4.30;;
73729;SDS011;62036;48.128;16.458;2022-08-19T12:27:46;7.72;;;4.05;;
73729;SDS011;62036;48.128;16.458;2022-08-19T12:30:13;8.02;;;3.75;;
73729;SDS011;62036;48.128;16.458;2022-08-19T12:32:39;8.45;;;3.53;;
73729;SDS011;62036;48.128;16.458;2022-08-19T12:35:06;9.60;;;4.05;;
73729;SDS011;62036;48.128;16.458;2022-08-19T12:37:34;8.63;;;3.78;;
73729;SDS011;62036;48.128;16.458;2022-08-19T12:40:00;8.23;;;3.65;;
73729;SDS011;62036;48.128;16.458;2022-08-19T12:42:26;7.47;;;3.38;;
73729;SDS011;62036;48.128;16.458;2022-08-19T12:44:53;6.28;;;3.55;;
73729;SDS011;62036;48.128;16.458;2022-08-19T12:47:19;11.60;;;3.70;;
73729;SDS011;62036;48.128;16.458;2022-08-19T12:49:46;9.73;;;3.55;;
73729;SDS011;62036;48.128;16.458;2022-08-19T12:52:12;7.18;;;3.97;;
73729;SDS011;62036;48.128;16.458;2022-08-19T12:54:41;11.55;;;5.40;;
73729;SDS011;62036;48.128;16.458;2022-08-19T12:57:08;9.27;;;4.57;;
73729;SDS011;62036;48.128;16.458;2022-08-19T12:59:36;11.40;;;5.93;;
73729;SDS011;62036;48.128;16.458;2022-08-19T13:02:03;14.30;;;7.28;;
73729;SDS011;62036;48.128;16.458;2022-08-19T13:04:31;8.18;;;4.00;;
73729;SDS011;62036;48.128;16.458;2022-08-19T13:06:57;9.07;;;4.97;;
73729;SDS011;62036;48.128;16.458;2022-08-19T13:09:24;16.00;;;3.90;;
73729;SDS011;62036;48.128;16.458;2022-08-19T13:11:50;9.40;;;3.90;;
73729;SDS011;62036;48.128;16.458;2022-08-19T13:14:16;10.20;;;3.97;;
73729;SDS011;62036;48.128;16.458;2022-08-19T13:16:42;8.27;;;3.40;;
73729;SDS011;62036;48.128;16.458;2022-08-19T13:19:08;9.70;;;3.03;;
73729;SDS011;62036;48.128;16.458;2022-08-19T13:21:35;8.43;;;3.50;;
73729;SDS011;62036;48.128;16.458;2022-08-19T13:24:01;7.70;;;3.83;;
73729;SDS011;62036;48.128;16.458;2022-08-19T13:26:27;9.00;;;3.92;;
73729;SDS011;62036;48.128;16.458;2022-08-19T13:28:53;7.30;;;3.38;;
73729;SDS011;62036;48.128;16.458;2022-08-19T13:31:39;9.55;;;3.30;;
73729;SDS011;62036;48.128;16.458;2022-08-19T13:34:26;6.78;;;3.30;;
73729;SDS011;62036;48.128;16.458;2022-08-19T13:36:53;5.68;;;2.85;;
73729;SDS011;62036;48.128;16.458;2022-08-19T13:39:19;9.05;;;3.45;;
73729;SDS011;62036;48.128;16.458;2022-08-19T13:41:46;9.02;;;3.60;;
73729;SDS011;62036;48.128;16.458;2022-08-19T13:44:13;12.40;;;4.10;;
73729;SDS011;62036;48.128;16.458;2022-08-19T13:46:40;5.60;;;3.17;;
73729;SDS011;62036;48.128;16.458;2022-08-19T13:49:09;7.38;;;3.75;;
73729;SDS011;62036;48.128;16.458;2022-08-19T13:51:37;12.80;;;3.70;;
73729;SDS011;62036;48.128;16.458;2022-08-19T13:54:05;8.00;;;3.80;;
73729;SDS011;62036;48.128;16.458;2022-08-19T13:56:31;9.32;;;3.70;;
73729;SDS011;62036;48.128;16.458;2022-08-19T13:58:57;11.18;;;3.58;;
73729;SDS011;62036;48.128;16.458;2022-08-19T14:01:23;11.20;;;4.13;;
73729;SDS011;62036;48.128;16.458;2022-08-19T14:03:49;8.23;;;3.50;;
73729;SDS011;62036;48.128;16.458;2022-08-19T14:06:16;8.23;;;2.90;;
73729;SDS011;62036;48.128;16.458;2022-08-19T14:08:42;6.63;;;3.40;;
73729;SDS011;62036;48.128;16.458;2022-08-19T14:11:09;12.32;;;3.70;;
73729;SDS011;62036;48.128;16.458;2022-08-19T14:13:36;8.45;;;3.10;;
73729;SDS011;62036;48.128;16.458;2022-08-19T14:16:06;10.38;;;3.42;;
73729;SDS011;62036;48.128;16.458;2022-08-19T14:18:32;8.40;;;3.33;;
73729;SDS011;62036;48.128;16.458;2022-08-19T14:20:58;7.43;;;2.95;;
73729;SDS011;62036;48.128;16.458;2022-08-19T14:23:24;7.00;;;3.17;;
73729;SDS011;62036;48.128;16.458;2022-08-19T14:25:50;9.80;;;3.40;;
73729;SDS011;62036;48.128;16.458;2022-08-19T14:28:16;10.60;;;3.35;;
73729;SDS011;62036;48.128;16.458;2022-08-19T14:30:42;6.85;;;3.22;;
73729;SDS011;62036;48.128;16.458;2022-08-19T14:33:09;5.15;;;3.10;;
73729;SDS011;62036;48.128;16.458;2022-08-19T14:35:35;11.18;;;3.88;;
73729;SDS011;62036;48.128;16.458;2022-08-19T14:38:05;6.80;;;2.90;;
73729;SDS011;62036;48.128;16.458;2022-08-19T14:40:33;7.25;;;3.80;;
73729;SDS011;62036;48.128;16.458;2022-08-19T14:43:01;9.57;;;3.25;;
73729;SDS011;62036;48.128;16.458;2022-08-19T14:45:33;6.82;;;2.95;;
73729;SDS011;62036;48.128;16.458;2022-08-19T14:48:00;8.52;;;2.90;;